createdAt,value
2022-09-28T00:01:09.785Z,100.00
2022-09-28T00:03:37.165Z,100.00
2022-09-28T00:06:07.230Z,100.00
2022-09-28T00:08:35.343Z,100.00
2022-09-28T00:11:03.204Z,100.00
2022-09-28T00:13:31.806Z,100.00
2022-09-28T00:16:10.956Z,100.00
2022-09-28T00:18:37.703Z,100.00
2022-09-28T00:21:08.248Z,100.00
2022-09-28T00:23:56.422Z,100.00
2022-09-28T00:26:23.933Z,100.00
2022-09-28T00:28:59.319Z,100.00
2022-09-28T00:31:28.224Z,100.00
2022-09-28T00:33:58.186Z,100.00
2022-09-28T00:36:27.205Z,100.00
2022-09-28T00:38:58.361Z,100.00
2022-09-28T00:41:27.594Z,100.00
2022-09-28T00:44:26.462Z,100.00
2022-09-28T00:46:58.018Z,100.00
2022-09-28T00:49:43.539Z,100.00
2022-09-28T00:52:14.941Z,100.00
2022-09-28T00:54:46.052Z,100.00
2022-09-28T00:57:13.871Z,100.00
2022-09-28T00:59:41.612Z,100.00
2022-09-28T01:02:10.597Z,100.00
2022-09-28T01:04:39.022Z,100.00
2022-09-28T01:07:09.015Z,100.00
2022-09-28T01:09:40.252Z,100.00
2022-09-28T01:12:08.049Z,100.00
2022-09-28T01:14:35.111Z,100.00
2022-09-28T01:17:17.950Z,100.00
2022-09-28T01:20:11.659Z,100.00
2022-09-28T01:22:50.425Z,100.00
2022-09-28T01:25:42.319Z,100.00
2022-09-28T01:28:14.488Z,100.00
2022-09-28T01:30:56.696Z,100.00
2022-09-28T01:33:28.905Z,100.00
2022-09-28T01:36:12.031Z,100.00
2022-09-28T01:38:47.352Z,100.00
2022-09-28T01:41:17.926Z,100.00
2022-09-28T01:43:54.948Z,100.00
2022-09-28T01:46:27.510Z,100.00
2022-09-28T01:48:57.933Z,100.00
2022-09-28T01:51:31.484Z,100.00
2022-09-28T01:54:06.658Z,100.00
2022-09-28T01:56:43.528Z,100.00
2022-09-28T01:59:16.763Z,100.00
2022-09-28T02:01:58.086Z,100.00
2022-09-28T02:04:41.520Z,100.00
2022-09-28T02:07:15.848Z,100.00
2022-09-28T02:09:47.395Z,100.00
2022-09-28T02:12:21.476Z,100.00
2022-09-28T02:14:52.268Z,100.00
2022-09-28T02:17:20.825Z,100.00
2022-09-28T02:19:48.538Z,100.00
2022-09-28T02:22:28.712Z,100.00
2022-09-28T02:24:59.542Z,100.00
2022-09-28T02:27:31.429Z,100.00
2022-09-28T02:29:58.524Z,100.00
2022-09-28T02:32:28.352Z,100.00
2022-09-28T02:34:55.652Z,100.00
2022-09-28T02:37:22.852Z,100.00
2022-09-28T02:39:49.736Z,100.00
2022-09-28T02:42:35.450Z,100.00
2022-09-28T02:45:23.534Z,100.00
2022-09-28T02:48:16.043Z,100.00
2022-09-28T02:50:48.830Z,100.00
2022-09-28T02:53:24.559Z,100.00
2022-09-28T02:56:18.757Z,100.00
2022-09-28T02:59:12.236Z,100.00
2022-09-28T03:01:59.449Z,100.00
2022-09-28T03:04:59.537Z,100.00
2022-09-28T03:07:37.328Z,100.00
2022-09-28T03:10:13.603Z,100.00
2022-09-28T03:12:43.278Z,100.00
2022-09-28T03:15:12.895Z,100.00
2022-09-28T03:17:41.123Z,100.00
2022-09-28T03:20:11.071Z,100.00
2022-09-28T03:22:38.384Z,100.00
2022-09-28T03:25:06.850Z,100.00
2022-09-28T03:27:35.064Z,100.00
2022-09-28T03:30:02.200Z,100.00
2022-09-28T03:32:29.362Z,100.00
2022-09-28T03:34:56.313Z,100.00
2022-09-28T03:37:23.274Z,100.00
2022-09-28T03:39:50.250Z,100.00
2022-09-28T03:42:17.078Z,100.00
2022-09-28T03:44:48.230Z,100.00
2022-09-28T03:47:18.176Z,100.00
2022-09-28T03:49:45.946Z,100.00
2022-09-28T03:52:14.354Z,100.00
2022-09-28T03:54:44.630Z,100.00
2022-09-28T03:57:13.793Z,100.00
2022-09-28T03:59:40.701Z,100.00
2022-09-28T04:02:08.305Z,100.00
2022-09-28T04:04:35.230Z,100.00
2022-09-28T04:07:02.484Z,100.00
2022-09-28T04:09:29.475Z,100.00
2022-09-28T04:12:03.996Z,100.00
2022-09-28T04:14:32.114Z,100.00
2022-09-28T04:16:59.099Z,100.00
2022-09-28T04:19:28.255Z,100.00
2022-09-28T04:22:33.729Z,100.00
2022-09-28T04:25:00.632Z,100.00
2022-09-28T04:27:46.128Z,100.00
2022-09-28T04:30:13.517Z,100.00
2022-09-28T04:32:43.702Z,100.00
2022-09-28T04:35:12.407Z,100.00
2022-09-28T04:37:39.262Z,100.00
2022-09-28T04:40:07.172Z,100.00
2022-09-28T04:42:36.787Z,100.00
2022-09-28T04:45:05.183Z,100.00
2022-09-28T04:47:35.360Z,100.00
2022-09-28T04:50:19.656Z,100.00
2022-09-28T04:53:05.189Z,100.00
2022-09-28T04:55:32.763Z,100.00
2022-09-28T04:58:03.475Z,100.00
2022-09-28T05:00:36.044Z,100.00
2022-09-28T05:03:12.216Z,100.00
2022-09-28T05:06:18.062Z,100.00
2022-09-28T05:08:47.390Z,100.00
2022-09-28T05:11:15.569Z,100.00
2022-09-28T05:13:45.585Z,100.00
2022-09-28T05:16:16.331Z,100.00
2022-09-28T05:19:03.261Z,100.00
2022-09-28T05:21:30.946Z,100.00
2022-09-28T05:23:58.495Z,100.00
2022-09-28T05:26:26.229Z,100.00
2022-09-28T05:28:53.179Z,100.00
2022-09-28T05:31:38.114Z,100.00
2022-09-28T05:34:07.875Z,100.00
2022-09-28T05:36:35.870Z,100.00
2022-09-28T05:39:04.133Z,100.00
2022-09-28T05:41:31.642Z,100.00
2022-09-28T05:43:59.985Z,100.00
2022-09-28T05:46:26.958Z,100.00
2022-09-28T05:48:54.687Z,100.00
2022-09-28T05:51:25.490Z,100.00
2022-09-28T05:53:55.787Z,100.00
2022-09-28T05:56:24.749Z,100.00
2022-09-28T05:58:52.662Z,100.00
2022-09-28T06:01:22.265Z,100.00
2022-09-28T06:03:49.359Z,100.00
2022-09-28T06:06:16.427Z,100.00
2022-09-28T06:08:46.387Z,100.00
2022-09-28T06:11:45.654Z,100.00
2022-09-28T06:14:24.262Z,100.00
2022-09-28T06:16:51.180Z,100.00
2022-09-28T06:19:18.610Z,100.00
2022-09-28T06:22:03.995Z,100.00
2022-09-28T06:24:33.634Z,100.00
2022-09-28T06:27:01.092Z,100.00
2022-09-28T06:29:29.352Z,100.00
2022-09-28T06:31:57.798Z,100.00
2022-09-28T06:34:24.965Z,100.00
2022-09-28T06:36:52.554Z,100.00
2022-09-28T06:39:19.524Z,100.00
2022-09-28T06:41:46.453Z,100.00
2022-09-28T06:44:18.539Z,100.00
2022-09-28T06:47:07.946Z,100.00
2022-09-28T06:50:13.668Z,100.00
2022-09-28T06:52:55.058Z,100.00
2022-09-28T06:55:41.438Z,100.00
2022-09-28T06:58:12.044Z,100.00
2022-09-28T07:00:40.035Z,100.00
2022-09-28T07:03:11.770Z,100.00
2022-09-28T07:05:57.521Z,100.00
2022-09-28T07:09:07.704Z,100.00
2022-09-28T07:12:10.155Z,100.00
2022-09-28T07:15:03.987Z,100.00
2022-09-28T07:17:36.246Z,100.00
2022-09-28T07:20:17.370Z,100.00
2022-09-28T07:22:48.506Z,100.00
2022-09-28T07:25:19.629Z,100.00
2022-09-28T07:27:57.783Z,100.00
2022-09-28T07:30:42.408Z,100.00
2022-09-28T07:33:17.721Z,100.00
2022-09-28T07:35:55.381Z,100.00
2022-09-28T07:38:28.876Z,100.00
2022-09-28T07:41:12.016Z,100.00
2022-09-28T07:43:50.351Z,100.00
2022-09-28T07:46:18.061Z,100.00
2022-09-28T07:48:55.120Z,100.00
2022-09-28T07:51:34.049Z,100.00
2022-09-28T07:54:31.966Z,100.00
2022-09-28T07:57:28.829Z,100.00
2022-09-28T08:00:22.366Z,100.00
2022-09-28T08:02:49.469Z,100.00
2022-09-28T08:05:22.936Z,100.00
2022-09-28T08:07:49.797Z,100.00
2022-09-28T08:10:17.872Z,100.00
2022-09-28T08:13:05.472Z,100.00
2022-09-28T08:15:39.375Z,100.00
2022-09-28T08:18:21.255Z,100.00
2022-09-28T08:21:06.695Z,100.00
2022-09-28T08:23:33.542Z,98.42
2022-09-28T08:26:00.360Z,96.64
2022-09-28T08:28:27.196Z,97.25
2022-09-28T08:31:00.055Z,93.37
2022-09-28T08:33:53.917Z,90.03
2022-09-28T08:36:40.962Z,90.29
2022-09-28T08:39:28.089Z,86.99
2022-09-28T08:42:40.170Z,85.69
2022-09-28T08:45:31.757Z,82.10
2022-09-28T08:49:13.390Z,79.63
2022-09-28T08:52:23.686Z,75.92
2022-09-28T08:55:37.093Z,77.89
2022-09-28T08:58:13.628Z,77.75
2022-09-28T09:00:53.271Z,77.53
2022-09-28T09:03:41.975Z,76.64
2022-09-28T09:06:37.777Z,73.64
2022-09-28T09:10:03.664Z,73.07
2022-09-28T09:12:43.326Z,71.69
2022-09-28T09:15:31.538Z,70.75
2022-09-28T09:18:09.579Z,70.57
2022-09-28T09:21:13.193Z,70.48
2022-09-28T09:24:21.627Z,69.56
2022-09-28T09:26:57.597Z,65.47
2022-09-28T09:29:33.755Z,64.62
2022-09-28T09:32:29.169Z,65.29
2022-09-28T09:35:06.418Z,65.98
2022-09-28T09:38:02.268Z,64.67
2022-09-28T09:41:09.834Z,64.93
2022-09-28T09:44:37.013Z,66.50
2022-09-28T09:47:33.685Z,63.98
2022-09-28T09:50:16.338Z,65.08
2022-09-28T09:52:57.710Z,64.44
2022-09-28T09:55:41.994Z,60.70
2022-09-28T09:58:18.306Z,62.02
2022-09-28T10:00:54.337Z,59.47
2022-09-28T10:03:48.869Z,57.96
2022-09-28T10:06:27.595Z,57.78
2022-09-28T10:09:23.996Z,54.66
2022-09-28T10:11:52.184Z,54.02
2022-09-28T10:14:22.434Z,56.13
2022-09-28T10:17:06.014Z,54.71
2022-09-28T10:19:51.245Z,53.21
2022-09-28T10:22:28.564Z,51.98
2022-09-28T10:25:00.149Z,51.17
2022-09-28T10:27:34.546Z,51.42
2022-09-28T10:30:14.901Z,49.32
2022-09-28T10:32:46.771Z,47.02
2022-09-28T10:35:19.718Z,46.56
2022-09-28T10:38:17.199Z,45.36
2022-09-28T10:40:47.692Z,45.93
2022-09-28T10:43:23.681Z,45.54
2022-09-28T10:46:07.848Z,43.59
2022-09-28T10:48:52.469Z,42.60
2022-09-28T10:51:21.020Z,44.05
2022-09-28T10:54:01.694Z,40.34
2022-09-28T10:56:45.867Z,40.10
2022-09-28T10:59:30.481Z,41.23
2022-09-28T11:02:22.323Z,41.34
2022-09-28T11:04:57.825Z,40.56
2022-09-28T11:07:33.448Z,41.02
2022-09-28T11:10:02.231Z,36.85
2022-09-28T11:12:43.325Z,37.52
2022-09-28T11:15:18.534Z,37.70
2022-09-28T11:17:47.186Z,38.41
2022-09-28T11:20:34.741Z,37.75
2022-09-28T11:23:22.344Z,38.17
2022-09-28T11:25:59.194Z,37.06
2022-09-28T11:28:32.983Z,37.75
2022-09-28T11:31:04.036Z,36.89
2022-09-28T11:34:12.550Z,37.59
2022-09-28T11:37:24.733Z,37.41
2022-09-28T11:39:51.578Z,36.50
2022-09-28T11:42:26.035Z,37.31
2022-09-28T11:45:19.531Z,37.29
2022-09-28T11:48:15.899Z,37.65
2022-09-28T11:51:09.936Z,37.96
2022-09-28T11:53:58.815Z,36.98
2022-09-28T11:56:31.661Z,37.42
2022-09-28T11:59:06.668Z,37.16
2022-09-28T12:01:54.421Z,37.89
2022-09-28T12:05:24.162Z,38.52
2022-09-28T12:08:01.392Z,39.50
2022-09-28T12:10:57.234Z,37.73
2022-09-28T12:13:48.271Z,37.25
2022-09-28T12:16:53.093Z,38.48
2022-09-28T12:19:20.915Z,38.45
2022-09-28T12:21:51.516Z,37.47
2022-09-28T12:24:42.428Z,36.76
2022-09-28T12:27:31.584Z,36.63
2022-09-28T12:30:14.226Z,36.70
2022-09-28T12:32:49.940Z,36.98
2022-09-28T12:36:08.987Z,36.87
2022-09-28T12:38:46.016Z,37.34
2022-09-28T12:41:32.758Z,37.28
2022-09-28T12:44:33.905Z,38.07
2022-09-28T12:47:05.893Z,38.47
2022-09-28T12:52:56.086Z,37.98
2022-09-28T12:55:43.552Z,37.86
2022-09-28T12:58:31.963Z,38.80
2022-09-28T13:01:01.531Z,37.86
2022-09-28T13:03:50.139Z,38.91
2022-09-28T13:06:24.888Z,38.06
2022-09-28T13:09:07.917Z,38.45
2022-09-28T13:11:41.385Z,39.14
2022-09-28T13:14:26.815Z,38.65
2022-09-28T13:17:25.931Z,38.58
2022-09-28T13:20:25.091Z,37.62
2022-09-28T13:23:05.326Z,37.47
2022-09-28T13:25:36.604Z,37.56
2022-09-28T13:28:05.744Z,36.72
2022-09-28T13:30:40.019Z,36.74
2022-09-28T13:33:13.051Z,35.96
2022-09-28T13:35:44.191Z,35.47
2022-09-28T13:38:20.878Z,36.07
2022-09-28T13:41:06.321Z,36.37
2022-09-28T13:43:35.845Z,36.32
2022-09-28T13:46:21.610Z,36.57
2022-09-28T13:49:06.634Z,36.83
2022-09-28T13:51:49.028Z,37.23
2022-09-28T13:54:50.882Z,36.80
2022-09-28T13:57:25.458Z,37.66
2022-09-28T14:00:04.056Z,37.92
2022-09-28T14:02:56.438Z,38.09
2022-09-28T14:05:23.302Z,38.09
2022-09-28T14:08:09.161Z,38.13
2022-09-28T14:14:19.394Z,38.40
2022-09-28T14:16:47.792Z,38.59
2022-09-28T14:19:19.431Z,39.52
2022-09-28T14:22:04.524Z,38.89
2022-09-28T14:24:46.328Z,38.29
2022-09-28T14:27:29.973Z,39.05
2022-09-28T14:30:06.543Z,38.72
2022-09-28T14:32:37.520Z,38.73
2022-09-28T14:35:07.656Z,39.02
2022-09-28T14:37:58.037Z,37.61
2022-09-28T14:40:49.908Z,38.31
2022-09-28T14:43:44.650Z,38.50
2022-09-28T14:46:11.532Z,38.72
2022-09-28T14:48:55.713Z,37.94
2022-09-28T14:51:31.904Z,38.43
2022-09-28T14:54:12.787Z,37.25
2022-09-28T14:56:56.560Z,36.91
2022-09-28T14:59:36.171Z,35.93
2022-09-28T15:02:12.571Z,35.72
2022-09-28T15:04:50.825Z,35.07
2022-09-28T15:07:23.710Z,35.70
2022-09-28T15:09:55.745Z,36.04
2022-09-28T15:12:28.757Z,36.04
2022-09-28T15:15:04.038Z,36.22
2022-09-28T15:17:39.460Z,37.12
2022-09-28T15:20:24.764Z,36.53
2022-09-28T15:22:58.071Z,37.28
2022-09-28T15:25:30.774Z,37.35
2022-09-28T15:28:19.467Z,37.43
2022-09-28T15:30:46.303Z,37.74
2022-09-28T15:33:46.718Z,38.03
2022-09-28T15:36:26.566Z,38.03
2022-09-28T15:39:00.951Z,38.81
2022-09-28T15:41:29.021Z,38.63
2022-09-28T15:44:34.169Z,39.13
2022-09-28T15:47:26.272Z,39.51
2022-09-28T15:49:58.797Z,39.22
2022-09-28T15:52:34.083Z,40.00
2022-09-28T15:55:03.009Z,40.20
2022-09-28T15:57:37.176Z,40.67
2022-09-28T16:00:27.382Z,40.04
2022-09-28T16:03:20.913Z,41.00
2022-09-28T16:06:05.706Z,41.61
2022-09-28T16:08:43.637Z,41.91
2022-09-28T16:11:37.827Z,43.14
2022-09-28T16:14:09.134Z,43.32
2022-09-28T16:16:50.553Z,43.89
2022-09-28T16:19:32.152Z,44.82
2022-09-28T16:22:02.210Z,44.19
2022-09-28T16:24:31.644Z,44.46
2022-09-28T16:27:08.557Z,46.72
2022-09-28T16:29:41.360Z,45.12
2022-09-28T16:32:26.218Z,46.64
2022-09-28T16:35:11.430Z,46.52
2022-09-28T16:37:43.113Z,46.28
2022-09-28T16:40:11.219Z,46.78
2022-09-28T16:42:48.669Z,46.76
2022-09-28T16:45:21.744Z,46.79
2022-09-28T16:47:53.130Z,50.42
2022-09-28T16:50:21.516Z,48.94
2022-09-28T16:53:18.106Z,46.88
2022-09-28T16:55:46.776Z,47.59
2022-09-28T16:58:13.708Z,49.94
2022-09-28T17:00:43.519Z,52.33
2022-09-28T17:03:14.723Z,48.58
2022-09-28T17:05:42.153Z,49.21
2022-09-28T17:08:13.759Z,51.24
2022-09-28T17:11:02.491Z,53.03
2022-09-28T17:13:33.950Z,54.67
2022-09-28T17:16:03.281Z,52.53
2022-09-28T17:18:32.100Z,56.03
2022-09-28T17:21:03.537Z,58.76
2022-09-28T17:23:30.608Z,53.77
2022-09-28T17:25:59.163Z,53.39
2022-09-28T17:28:30.076Z,53.55
2022-09-28T17:30:57.352Z,52.07
2022-09-28T17:33:24.421Z,55.93
2022-09-28T17:35:56.346Z,53.05
2022-09-28T17:38:23.232Z,52.14
2022-09-28T17:40:52.728Z,52.29
2022-09-28T17:43:22.347Z,53.17
2022-09-28T17:45:49.865Z,55.42
2022-09-28T17:48:19.172Z,53.16
2022-09-28T17:50:47.618Z,52.96
2022-09-28T17:53:15.255Z,54.00
2022-09-28T17:55:45.866Z,57.20
2022-09-28T17:58:22.188Z,54.31
2022-09-28T18:00:51.740Z,60.32
2022-09-28T18:03:24.856Z,53.80
2022-09-28T18:06:16.427Z,56.05
2022-09-28T18:08:46.120Z,52.91
2022-09-28T18:11:13.080Z,54.25
2022-09-28T18:13:40.713Z,58.01
2022-09-28T18:16:08.582Z,53.15
2022-09-28T18:18:38.562Z,54.09
2022-09-28T18:21:09.269Z,55.23
2022-09-28T18:23:37.731Z,56.15
2022-09-28T18:26:11.524Z,59.36
2022-09-28T18:28:38.501Z,60.59
2022-09-28T18:31:13.840Z,58.82
2022-09-28T18:33:41.077Z,62.32
2022-09-28T18:36:08.528Z,63.45
2022-09-28T18:38:36.373Z,64.64
2022-09-28T18:41:11.568Z,66.19
2022-09-28T18:43:38.395Z,66.42
2022-09-28T18:46:09.708Z,67.76
2022-09-28T18:48:37.791Z,67.33
2022-09-28T18:51:08.875Z,68.78
2022-09-28T18:53:36.194Z,68.90
2022-09-28T18:56:12.037Z,71.07
2022-09-28T18:58:40.330Z,69.05
2022-09-28T19:01:31.913Z,70.13
2022-09-28T19:04:00.766Z,69.36
2022-09-28T19:06:28.347Z,69.17
2022-09-28T19:08:56.327Z,68.91
2022-09-28T19:11:24.029Z,69.25
2022-09-28T19:13:51.409Z,69.48
2022-09-28T19:16:21.456Z,68.35
2022-09-28T19:18:48.887Z,69.53
2022-09-28T19:21:16.131Z,69.77
2022-09-28T19:23:48.932Z,68.84
2022-09-28T19:26:20.495Z,70.54
2022-09-28T19:28:48.082Z,69.19
2022-09-28T19:31:14.900Z,68.75
2022-09-28T19:33:41.980Z,71.04
2022-09-28T19:36:11.305Z,70.83
2022-09-28T19:38:39.632Z,69.28
2022-09-28T19:41:11.171Z,69.11
2022-09-28T19:43:38.457Z,68.75
2022-09-28T19:46:06.921Z,69.41
2022-09-28T19:48:34.483Z,68.73
2022-09-28T19:51:04.694Z,71.10
2022-09-28T19:53:37.983Z,71.21
2022-09-28T19:56:05.664Z,71.56
2022-09-28T19:58:35.684Z,70.40
2022-09-28T20:01:06.827Z,72.13
2022-09-28T20:03:34.825Z,72.76
2022-09-28T20:06:02.554Z,71.93
2022-09-28T20:08:32.459Z,71.97
2022-09-28T20:11:00.074Z,71.45
2022-09-28T20:13:35.858Z,63.90
2022-09-28T20:16:08.533Z,64.77
2022-09-28T20:18:36.926Z,68.07
2022-09-28T20:21:09.648Z,69.68
2022-09-28T20:23:36.653Z,69.91
2022-09-28T20:26:04.900Z,70.47
2022-09-28T20:28:32.225Z,72.42
2022-09-28T20:31:07.427Z,70.23
2022-09-28T20:33:36.132Z,71.78
2022-09-28T20:36:07.566Z,70.96
2022-09-28T20:38:35.336Z,65.05
2022-09-28T20:41:03.048Z,62.02
2022-09-28T20:43:31.513Z,64.15
2022-09-28T20:45:59.035Z,64.71
2022-09-28T20:48:26.770Z,65.09
2022-09-28T20:51:09.006Z,66.08
2022-09-28T20:53:37.478Z,67.66
2022-09-28T20:56:07.007Z,70.15
2022-09-28T20:58:34.696Z,71.59
2022-09-28T21:01:10.950Z,72.85
2022-09-28T21:03:38.587Z,74.55
2022-09-28T21:06:12.118Z,74.42
2022-09-28T21:08:40.527Z,74.81
2022-09-28T21:11:10.135Z,76.00
2022-09-28T21:13:36.984Z,77.50
2022-09-28T21:16:04.891Z,76.60
2022-09-28T21:18:31.751Z,76.35
2022-09-28T21:20:58.502Z,76.39
2022-09-28T21:23:25.624Z,76.80
2022-09-28T21:26:26.048Z,76.01
2022-09-28T21:28:54.603Z,77.90
2022-09-28T21:31:27.694Z,78.45
2022-09-28T21:33:56.036Z,78.69
2022-09-28T21:36:23.458Z,78.54
2022-09-28T21:38:50.556Z,79.63
2022-09-28T21:41:17.570Z,78.98
2022-09-28T21:43:45.833Z,78.09
2022-09-28T21:46:12.901Z,79.82
2022-09-28T21:48:39.783Z,79.25
2022-09-28T21:51:09.366Z,80.03
2022-09-28T21:53:37.784Z,81.54
2022-09-28T21:56:07.198Z,81.12
2022-09-28T21:58:35.509Z,80.77
2022-09-28T22:01:04.576Z,80.36
2022-09-28T22:03:31.871Z,78.43
2022-09-28T22:05:58.937Z,78.63
2022-09-28T22:08:26.474Z,78.95
2022-09-28T22:11:02.127Z,77.98
2022-09-28T22:13:30.523Z,77.41
2022-09-28T22:15:58.938Z,77.24
2022-09-28T22:18:27.557Z,78.11
2022-09-28T22:21:14.470Z,77.87
2022-09-28T22:23:41.903Z,77.49
2022-09-28T22:26:12.724Z,77.91
2022-09-28T22:28:44.621Z,79.60
2022-09-28T22:31:11.527Z,79.93
2022-09-28T22:33:38.317Z,80.75
2022-09-28T22:36:05.483Z,81.16
2022-09-28T22:38:32.802Z,80.59
2022-09-28T22:40:59.970Z,80.97
2022-09-28T22:43:27.208Z,81.32
2022-09-28T22:46:03.578Z,81.62
2022-09-28T22:48:30.915Z,82.37
2022-09-28T22:50:57.752Z,83.25
2022-09-28T22:53:24.811Z,82.61
2022-09-28T22:55:51.656Z,83.75
2022-09-28T22:58:18.575Z,85.04
2022-09-28T23:00:45.449Z,84.72
2022-09-28T23:03:12.452Z,86.07
2022-09-28T23:05:39.348Z,86.57
2022-09-28T23:08:06.108Z,86.65
2022-09-28T23:10:33.512Z,85.36
2022-09-28T23:13:00.393Z,87.17
2022-09-28T23:15:28.637Z,88.77
2022-09-28T23:17:55.784Z,86.39
2022-09-28T23:20:22.696Z,85.91
2022-09-28T23:22:50.174Z,85.29
2022-09-28T23:25:18.395Z,84.85
2022-09-28T23:27:49.821Z,85.98
2022-09-28T23:30:18.753Z,84.89
2022-09-28T23:32:45.936Z,85.67
2022-09-28T23:35:14.415Z,85.44
2022-09-28T23:37:41.207Z,85.48
2022-09-28T23:40:08.340Z,85.07
2022-09-28T23:42:35.731Z,84.79
2022-09-28T23:45:02.600Z,86.62
2022-09-28T23:47:29.444Z,85.11
2022-09-28T23:49:56.250Z,84.76
2022-09-28T23:52:23.073Z,84.56
2022-09-28T23:54:49.853Z,83.99
2022-09-28T23:57:16.636Z,83.78
2022-09-28T23:59:43.432Z,84.00
